Time;durP1;ratioP1;P1;durP2;ratioP2;P2;SDS_P1;SDS_P2;PMS_P1;PMS_P2;Temp;Humidity;BMP_temperature;BMP_pressure;BME280_temperature;BME280_humidity;BME280_pressure;Samples;Min_cycle;Max_cycle;Signal;HPM_P1;HPM_P2
2021/08/11 00:01:45;;;;;;;14.75;9.20;;;;;;;18.46;100.00;100218.88;1747802;81;21036;-41
2021/08/11 00:04:11;;;;;;;24.72;9.60;;;;;;;18.45;100.00;100219.81;1743066;81;20997;-40
2021/08/11 00:06:38;;;;;;;19.35;9.08;;;;;;;18.43;100.00;100217.74;1743086;82;20961;-41
2021/08/11 00:09:04;;;;;;;13.00;9.28;;;;;;;18.42;100.00;100214.27;1743973;81;21007;-41
2021/08/11 00:11:31;;;;;;;20.25;9.70;;;;;;;18.42;100.00;100220.81;1743258;82;20972;-40
2021/08/11 00:13:58;;;;;;;16.60;9.65;;;;;;;18.41;100.00;100215.67;1743321;82;21146;-41
2021/08/11 00:16:26;;;;;;;20.80;9.45;;;;;;;18.41;100.00;100216.50;1746537;81;21039;-41
2021/08/11 00:18:54;;;;;;;18.95;9.75;;;;;;;18.39;100.00;100219.67;1722727;82;20894;-41
2021/08/11 00:21:22;;;;;;;16.90;9.78;;;;;;;18.36;100.00;100215.47;1739809;80;21043;-40
2021/08/11 00:23:48;;;;;;;13.55;9.23;;;;;;;18.36;100.00;100210.68;1752052;81;21034;-41
2021/08/11 00:26:15;;;;;;;17.60;9.83;;;;;;;18.36;100.00;100213.30;1748416;81;21142;-41
2021/08/11 00:28:41;;;;;;;17.23;9.80;;;;;;;18.36;100.00;100214.16;1751471;81;21011;-42
2021/08/11 00:31:07;;;;;;;13.85;9.50;;;;;;;18.35;100.00;100214.23;1741810;81;21055;-41
2021/08/11 00:33:34;;;;;;;15.60;9.60;;;;;;;18.34;100.00;100219.95;1719761;82;20984;-40
2021/08/11 00:36:03;;;;;;;18.23;9.78;;;;;;;18.34;100.00;100222.57;1748383;80;20991;-42
2021/08/11 00:38:30;;;;;;;18.98;9.43;;;;;;;18.33;100.00;100215.64;1731773;81;21104;-42
2021/08/11 00:40:58;;;;;;;18.50;9.83;;;;;;;18.31;100.00;100212.23;1736311;81;20972;-41
2021/08/11 00:43:25;;;;;;;17.42;9.28;;;;;;;18.29;100.00;100214.09;1741672;81;20987;-41
2021/08/11 00:45:51;;;;;;;19.57;9.85;;;;;;;18.28;100.00;100208.95;1740109;81;20984;-41
2021/08/11 00:48:18;;;;;;;14.30;9.20;;;;;;;18.28;100.00;100207.64;1746720;81;21074;-41
2021/08/11 00:50:44;;;;;;;21.95;9.43;;;;;;;18.26;100.00;100206.41;1747066;81;21081;-41
2021/08/11 00:53:14;;;;;;;18.02;9.60;;;;;;;18.23;100.00;100202.64;1742185;81;20948;-40
2021/08/11 00:55:42;;;;;;;13.60;9.08;;;;;;;18.23;100.00;100202.64;1666289;84;20968;-40
2021/08/11 00:58:10;;;;;;;17.90;9.48;;;;;;;18.23;100.00;100210.51;1700714;83;20965;-41
2021/08/11 01:00:44;;;;;;;21.57;9.45;;;;;;;18.21;100.00;100204.05;1703286;83;21054;-40
2021/08/11 01:03:17;;;;;;;20.45;8.60;;;;;;;18.19;100.00;100205.05;1736564;81;21305;-42
2021/08/11 01:05:43;;;;;;;19.30;9.75;;;;;;;18.17;100.00;100208.23;1743682;81;21043;-41
2021/08/11 01:08:12;;;;;;;16.20;8.70;;;;;;;18.16;100.00;100207.84;1743179;81;20980;-40
2021/08/11 01:10:39;;;;;;;15.25;8.85;;;;;;;18.16;100.00;100209.16;1744153;81;20992;-41
2021/08/11 01:13:07;;;;;;;13.55;9.08;;;;;;;18.13;100.00;100208.02;1744524;81;21012;-41
2021/08/11 01:15:33;;;;;;;16.57;9.33;;;;;;;18.09;100.00;100213.42;1719558;82;21937;-41
2021/08/11 01:18:00;;;;;;;14.40;9.50;;;;;;;18.08;100.00;100215.66;1741857;81;20952;-40
2021/08/11 01:20:27;;;;;;;18.42;8.68;;;;;;;18.07;100.00;100221.83;1740845;81;21007;-40
2021/08/11 01:23:08;;;;;;;17.27;8.58;;;;;;;18.06;100.00;100212.73;1736553;81;21011;-41
2021/08/11 01:25:44;;;;;;;14.87;9.18;;;;;;;18.02;100.00;100222.52;1726506;81;21138;-40
2021/08/11 01:28:30;;;;;;;17.02;9.50;;;;;;;18.00;100.00;100223.03;1743977;81;21797;-41
2021/08/11 01:31:20;;;;;;;13.48;8.83;;;;;;;18.00;100.00;100220.41;1739949;81;21636;-40
2021/08/11 01:34:29;;;;;;;14.75;9.30;;;;;;;18.01;100.00;100215.59;1730124;81;20985;-40
2021/08/11 01:37:02;;;;;;;12.40;8.83;;;;;;;18.00;100.00;100218.27;1667021;83;21019;-40
2021/08/11 01:39:35;;;;;;;15.83;8.78;;;;;;;17.96;100.00;100216.27;1701946;82;21691;-40
2021/08/11 01:42:17;;;;;;;12.68;8.85;;;;;;;17.92;100.00;100227.36;1695160;82;21100;-41
2021/08/11 01:45:09;;;;;;;17.25;9.80;;;;;;;17.89;100.00;100236.69;1717609;82;21022;-40
2021/08/11 01:47:49;;;;;;;15.43;8.83;;;;;;;17.86;100.00;100239.47;1668949;84;21015;-41
2021/08/11 01:50:18;;;;;;;18.92;9.45;;;;;;;17.88;100.00;100230.24;1696431;82;20948;-41
2021/08/11 01:52:45;;;;;;;20.32;8.88;;;;;;;17.91;100.00;100224.84;1691816;82;20921;-41
2021/08/11 01:55:14;;;;;;;12.68;9.25;;;;;;;17.94;100.00;100222.06;1707703;82;21148;-41
2021/08/11 01:57:50;;;;;;;14.20;8.95;;;;;;;17.95;100.00;100225.05;1717497;82;20908;-41
2021/08/11 02:00:19;;;;;;;12.70;8.75;;;;;;;17.93;100.00;100223.81;1706838;82;21046;-41
2021/08/11 02:02:47;;;;;;;17.65;8.45;;;;;;;17.90;100.00;100222.67;1707925;81;21023;-41
2021/08/11 02:05:16;;;;;;;11.57;8.45;;;;;;;17.88;100.00;100217.16;1709133;82;21079;-41
2021/08/11 02:07:44;;;;;;;19.25;8.78;;;;;;;17.87;100.00;100214.98;1691064;84;21071;-41
2021/08/11 02:10:13;;;;;;;14.83;8.50;;;;;;;17.84;100.00;100211.70;1697982;82;21609;-41
2021/08/11 02:12:40;;;;;;;10.85;8.50;;;;;;;17.83;100.00;100216.55;1713290;83;21038;-41
2021/08/11 02:15:09;;;;;;;16.48;9.08;;;;;;;17.80;100.00;100220.17;1705815;81;21607;-41
2021/08/11 02:17:41;;;;;;;19.20;8.35;;;;;;;17.76;100.00;100216.85;1685940;84;20991;-41
2021/08/11 02:20:12;;;;;;;18.90;8.33;;;;;;;17.74;100.00;100213.95;1713730;82;21106;-41
2021/08/11 02:22:38;;;;;;;13.32;8.28;;;;;;;17.74;100.00;100216.57;1713808;83;20952;-41
2021/08/11 02:25:11;;;;;;;23.50;9.15;;;;;;;17.77;100.00;100213.79;1711337;82;22016;-41
2021/08/11 02:27:58;;;;;;;19.57;8.35;;;;;;;17.78;100.00;100211.55;1702258;82;20987;-41
2021/08/11 02:30:31;;;;;;;11.68;8.60;;;;;;;17.77;100.00;100212.48;1700778;82;20951;-40
2021/08/11 02:33:04;;;;;;;14.28;8.05;;;;;;;17.76;100.00;100209.48;1695287;82;21176;-41
2021/08/11 02:35:33;;;;;;;20.02;9.28;;;;;;;17.75;100.00;100213.86;1712016;81;21035;-40
2021/08/11 02:38:18;;;;;;;16.48;8.15;;;;;;;17.76;100.00;100215.55;1748789;81;20996;-40
2021/08/11 02:41:24;;;;;;;17.95;8.25;;;;;;;17.77;100.00;100219.85;1752074;81;20956;-41
2021/08/11 02:43:56;;;;;;;15.43;8.43;;;;;;;17.78;100.00;100215.00;1744821;80;21399;-39
2021/08/11 02:46:25;;;;;;;11.12;7.85;;;;;;;17.78;100.00;100222.85;1754179;80;21109;-40
2021/08/11 02:48:59;;;;;;;27.37;9.05;;;;;;;17.79;100.00;100223.72;1741020;80;21657;-40
2021/08/11 02:51:28;;;;;;;13.78;9.18;;;;;;;17.79;100.00;100223.23;1750885;80;20959;-40
2021/08/11 02:54:00;;;;;;;19.82;9.18;;;;;;;17.81;100.00;100220.55;1745412;80;21528;-40
2021/08/11 02:56:27;;;;;;;70.40;9.78;;;;;;;17.81;100.00;100224.48;1750193;81;21508;-39
2021/08/11 02:58:54;;;;;;;47.13;9.28;;;;;;;17.84;100.00;100218.25;1723169;80;21063;-39
2021/08/11 03:01:21;;;;;;;18.05;8.70;;;;;;;17.83;100.00;100223.10;1726679;80;20996;-39
2021/08/11 03:03:49;;;;;;;11.93;9.00;;;;;;;17.84;100.00;100224.79;1743653;80;20987;-39
2021/08/11 03:06:16;;;;;;;13.95;9.05;;;;;;;17.86;100.00;100221.14;1740153;80;21042;-40
2021/08/11 03:08:43;;;;;;;13.35;8.93;;;;;;;17.88;100.00;100220.59;1751207;81;21529;-39
2021/08/11 03:11:10;;;;;;;17.35;8.80;;;;;;;17.90;100.00;100216.61;1750231;80;22294;-40
2021/08/11 03:13:42;;;;;;;11.68;8.08;;;;;;;17.92;100.00;100220.81;1752427;81;21498;-40
2021/08/11 03:16:06;;;;;;;19.67;9.93;;;;;;;17.90;100.00;100210.89;1750839;80;21494;-39
2021/08/11 03:18:33;;;;;;;18.05;8.80;;;;;;;17.91;100.00;100219.61;1706383;81;20956;-40
2021/08/11 03:21:00;;;;;;;17.45;8.68;;;;;;;17.92;100.00;100220.81;1755304;80;21078;-40
2021/08/11 03:23:26;;;;;;;25.30;8.58;;;;;;;17.94;100.00;100214.20;1724656;80;21093;-40
2021/08/11 03:25:53;;;;;;;27.17;8.98;;;;;;;17.95;100.00;100219.37;1746346;80;21019;-39
2021/08/11 03:28:21;;;;;;;13.45;8.43;;;;;;;17.97;100.00;100223.67;1729615;81;22133;-40
2021/08/11 03:30:48;;;;;;;13.70;8.40;;;;;;;17.99;100.00;100220.03;1741949;80;20995;-40
2021/08/11 03:33:15;;;;;;;16.35;8.90;;;;;;;18.03;100.00;100224.20;1743413;80;20941;-40
2021/08/11 03:35:42;;;;;;;13.65;8.13;;;;;;;18.06;100.00;100224.52;1748853;80;21201;-41
2021/08/11 03:38:09;;;;;;;16.12;8.30;;;;;;;18.11;100.00;100228.20;1742948;81;20992;-40
2021/08/11 03:40:35;;;;;;;20.20;8.10;;;;;;;18.15;100.00;100236.28;1735881;81;21518;-40
2021/08/11 03:43:03;;;;;;;20.68;8.65;;;;;;;18.25;100.00;100233.53;1739987;81;20976;-40
2021/08/11 03:45:32;;;;;;;16.30;8.48;;;;;;;18.31;100.00;100227.95;1740856;81;21000;-40
2021/08/11 03:47:58;;;;;;;11.33;7.65;;;;;;;18.40;100.00;100229.70;1733120;82;21129;-40
2021/08/11 03:50:27;;;;;;;16.82;7.83;;;;;;;18.56;100.00;100231.84;1740349;81;21852;-40
2021/08/11 03:52:53;;;;;;;12.05;7.45;;;;;;;18.75;100.00;100224.27;1719197;82;20940;-41
2021/08/11 03:55:22;;;;;;;12.13;6.85;;;;;;;18.94;100.00;100224.05;1736271;81;21001;-41
2021/08/11 03:57:48;;;;;;;15.85;6.58;;;;;;;19.06;100.00;100219.91;1744539;81;21000;-40
2021/08/11 04:00:15;;;;;;;10.28;6.83;;;;;;;19.23;100.00;100218.95;1740933;81;21140;-40
2021/08/11 04:02:42;;;;;;;15.50;6.50;;;;;;;19.45;100.00;100226.39;1740050;81;20981;-40
2021/08/11 04:05:09;;;;;;;9.88;6.80;;;;;;;19.63;100.00;100220.99;1735801;81;21001;-40
2021/08/11 04:07:36;;;;;;;14.25;6.97;;;;;;;19.89;100.00;100227.75;1743495;82;21474;-40
2021/08/11 04:10:08;;;;;;;17.27;6.00;;;;;;;20.14;100.00;100226.27;1707305;82;20952;-40
2021/08/11 04:12:34;;;;;;;10.80;6.17;;;;;;;20.30;100.00;100220.41;1739458;81;21084;-39
2021/08/11 04:15:00;;;;;;;8.98;5.62;;;;;;;20.49;100.00;100218.79;1731917;82;21545;-40
2021/08/11 04:17:27;;;;;;;13.13;6.37;;;;;;;20.51;100.00;100225.24;1743507;81;21054;-40
2021/08/11 04:19:55;;;;;;;18.37;7.65;;;;;;;20.56;100.00;100227.59;1742389;81;20991;-40
2021/08/11 04:22:23;;;;;;;13.58;6.90;;;;;;;20.73;100.00;100226.49;1746000;81;20961;-40
2021/08/11 04:24:51;;;;;;;9.25;6.85;;;;;;;20.90;100.00;100230.22;1723246;81;21248;-40
2021/08/11 04:27:17;;;;;;;14.95;7.58;;;;;;;20.95;100.00;100241.28;1734086;81;21004;-40
2021/08/11 04:29:43;;;;;;;15.18;8.13;;;;;;;20.93;100.00;100240.54;1734730;81;21079;-40
2021/08/11 04:32:09;;;;;;;12.80;7.30;;;;;;;21.00;100.00;100236.19;1741935;81;21022;-39
2021/08/11 04:34:36;;;;;;;17.30;8.18;;;;;;;21.17;100.00;100237.69;1739667;80;20956;-40
2021/08/11 04:37:02;;;;;;;16.07;8.20;;;;;;;21.36;100.00;100228.94;1743895;80;21207;-40
2021/08/11 04:39:29;;;;;;;17.48;8.55;;;;;;;21.34;100.00;100236.09;1745082;80;21022;-40
2021/08/11 04:41:55;;;;;;;16.95;8.73;;;;;;;21.32;100.00;100243.72;1750581;80;20987;-40
2021/08/11 04:44:21;;;;;;;22.22;8.55;;;;;;;21.43;100.00;100241.22;1750622;80;21035;-40
2021/08/11 04:46:47;;;;;;;14.90;7.33;;;;;;;21.64;100.00;100241.57;1747619;80;21078;-40
2021/08/11 04:49:13;;;;;;;12.60;7.20;;;;;;;21.88;100.00;100245.27;1750890;80;21133;-39
2021/08/11 04:51:40;;;;;;;18.40;7.70;;;;;;;22.04;100.00;100237.95;1751098;80;20904;-39
2021/08/11 04:54:06;;;;;;;12.13;7.30;;;;;;;22.08;100.00;100239.91;1751323;82;20975;-40
2021/08/11 04:56:32;;;;;;;14.45;8.08;;;;;;;22.07;98.00;100236.91;1749464;80;20971;-41
2021/08/11 04:58:58;;;;;;;12.90;8.50;;;;;;;22.08;97.82;100245.18;1754024;80;21020;-41
2021/08/11 05:01:25;;;;;;;12.05;8.40;;;;;;;22.11;96.91;100246.28;1750734;80;21145;-41
2021/08/11 05:03:51;;;;;;;14.65;7.90;;;;;;;22.13;98.52;100247.50;1749168;80;21644;-41
2021/08/11 05:06:18;;;;;;;13.32;8.05;;;;;;;22.21;97.52;100243.34;1719621;82;21007;-40
2021/08/11 05:08:44;;;;;;;13.72;8.38;;;;;;;22.34;97.75;100247.27;1749836;80;21584;-40
2021/08/11 05:11:10;;;;;;;13.75;7.90;;;;;;;22.38;95.86;100250.53;1723647;82;21209;-41
2021/08/11 05:13:37;;;;;;;14.93;8.20;;;;;;;22.33;93.21;100245.59;1748794;80;21802;-42
2021/08/11 05:16:04;;;;;;;11.15;8.40;;;;;;;22.33;94.23;100248.72;1725136;80;21106;-42
2021/08/11 05:18:30;;;;;;;13.00;7.78;;;;;;;22.45;96.32;100244.36;1752118;81;20976;-38
2021/08/11 05:20:56;;;;;;;14.07;8.35;;;;;;;22.59;97.23;100243.39;1750690;80;20995;-40
2021/08/11 05:23:22;;;;;;;12.88;8.45;;;;;;;22.70;94.12;100246.56;1751263;82;20963;-41
2021/08/11 05:25:49;;;;;;;15.83;8.28;;;;;;;22.84;91.37;100242.91;1750972;80;21098;-41
2021/08/11 05:28:15;;;;;;;14.65;8.80;;;;;;;22.94;91.61;100234.20;1751082;82;21022;-41
2021/08/11 05:30:41;;;;;;;12.60;8.85;;;;;;;22.99;86.88;100233.02;1751000;80;22160;-41
2021/08/11 05:33:08;;;;;;;21.95;8.63;;;;;;;22.96;87.35;100235.39;1746218;80;21094;-41
2021/08/11 05:35:34;;;;;;;16.23;8.80;;;;;;;22.96;85.39;100227.48;1750982;80;21486;-41
2021/08/11 05:38:01;;;;;;;12.75;8.50;;;;;;;22.95;85.01;100227.11;1744707;81;21087;-42
2021/08/11 05:40:28;;;;;;;15.30;9.00;;;;;;;22.98;86.11;100232.16;1735155;81;20988;-40
2021/08/11 05:42:54;;;;;;;10.43;7.55;;;;;;;23.02;85.22;100231.46;1743101;82;21016;-41
2021/08/11 05:45:20;;;;;;;16.73;7.83;;;;;;;23.16;85.27;100234.39;1742694;81;21011;-41
2021/08/11 05:47:47;;;;;;;13.85;7.90;;;;;;;23.19;83.67;100229.73;1742571;81;20992;-41
2021/08/11 05:50:13;;;;;;;13.18;8.05;;;;;;;23.24;82.86;100227.58;1743290;81;21111;-41
2021/08/11 05:52:39;;;;;;;11.43;8.43;;;;;;;23.30;83.13;100221.50;1745906;81;21477;-41
2021/08/11 05:55:06;;;;;;;14.87;8.88;;;;;;;23.32;79.36;100216.47;1744946;80;21003;-40
2021/08/11 05:57:38;;;;;;;19.92;9.40;;;;;;;23.36;79.58;100223.20;1742679;81;20991;-41
2021/08/11 06:00:06;;;;;;;14.35;10.15;;;;;;;23.45;81.04;100216.37;1741817;81;21015;-41
2021/08/11 06:02:36;;;;;;;14.18;9.50;;;;;;;23.50;78.40;100212.89;1730504;81;21861;-40
2021/08/11 06:05:07;;;;;;;17.15;9.93;;;;;;;23.47;79.88;100216.23;1740088;81;20996;-41
2021/08/11 06:07:34;;;;;;;14.45;9.78;;;;;;;23.51;78.83;100216.39;1742626;81;20936;-41
2021/08/11 06:10:00;;;;;;;18.07;9.00;;;;;;;23.56;79.92;100213.37;1736525;81;21538;-41
2021/08/11 06:12:26;;;;;;;11.50;9.15;;;;;;;23.62;80.00;100216.85;1741676;81;21532;-41
2021/08/11 06:14:53;;;;;;;17.15;9.55;;;;;;;23.69;78.82;100211.48;1742291;81;21588;-42
2021/08/11 06:17:19;;;;;;;16.07;9.45;;;;;;;23.73;78.57;100219.52;1743146;81;20965;-40
2021/08/11 06:19:47;;;;;;;17.10;9.35;;;;;;;23.74;78.75;100216.37;1741710;81;20893;-40
2021/08/11 06:22:15;;;;;;;15.60;9.88;;;;;;;23.80;78.44;100215.43;1742797;81;21577;-39
2021/08/11 06:24:41;;;;;;;16.07;9.70;;;;;;;23.80;78.29;100222.53;1727459;80;20948;-40
2021/08/11 06:27:07;;;;;;;14.35;9.45;;;;;;;23.77;77.18;100218.81;1742749;81;21389;-40
2021/08/11 06:29:34;;;;;;;20.60;10.13;;;;;;;23.85;77.38;100220.83;1742065;81;20941;-41
2021/08/11 06:32:02;;;;;;;14.73;9.58;;;;;;;23.94;77.70;100221.45;1745587;81;20964;-40
2021/08/11 06:34:28;;;;;;;13.30;9.40;;;;;;;24.00;77.12;100210.84;1741460;81;21516;-41
2021/08/11 06:36:56;;;;;;;15.35;9.38;;;;;;;23.98;76.49;100213.63;1735468;81;20972;-40
2021/08/11 06:39:24;;;;;;;22.20;9.88;;;;;;;23.96;75.79;100218.20;1741397;81;21856;-40
2021/08/11 06:41:51;;;;;;;22.98;9.43;;;;;;;24.02;77.05;100216.42;1735499;81;20998;-40
2021/08/11 06:44:19;;;;;;;12.40;8.13;;;;;;;24.21;77.04;100224.22;1737948;81;20984;-41
2021/08/11 06:46:46;;;;;;;18.07;9.35;;;;;;;24.37;76.86;100219.85;1731183;81;20957;-41
2021/08/11 06:49:14;;;;;;;13.25;8.48;;;;;;;24.52;74.43;100223.06;1713057;82;20984;-40
2021/08/11 06:51:40;;;;;;;16.57;8.73;;;;;;;24.57;73.25;100220.05;1742174;81;21192;-41
2021/08/11 06:54:10;;;;;;;12.90;7.33;;;;;;;24.61;73.30;100213.03;1732681;81;21013;-41
2021/08/11 06:56:35;;;;;;;20.32;7.72;;;;;;;24.66;72.89;100213.99;1741304;81;21505;-40
2021/08/11 06:59:01;;;;;;;14.30;6.10;;;;;;;24.76;73.23;100218.08;1718023;81;21505;-40
2021/08/11 07:01:28;;;;;;;9.05;5.72;;;;;;;24.83;68.72;100215.28;1742531;81;21513;-41
2021/08/11 07:03:54;;;;;;;6.60;5.40;;;;;;;24.85;69.69;100219.13;1742533;81;21545;-41
2021/08/11 07:06:21;;;;;;;12.63;5.67;;;;;;;25.02;69.31;100208.45;1736202;81;20941;-41
2021/08/11 07:08:47;;;;;;;8.93;4.92;;;;;;;25.27;67.71;100222.28;1742353;81;21126;-41
2021/08/11 07:11:14;;;;;;;6.35;5.20;;;;;;;25.46;67.94;100221.08;1711878;82;20941;-40
2021/08/11 07:13:41;;;;;;;10.82;4.95;;;;;;;25.62;67.63;100226.41;1705887;83;20949;-41
2021/08/11 07:16:08;;;;;;;6.08;4.90;;;;;;;25.75;63.70;100227.03;1716224;82;21046;-41
2021/08/11 07:18:34;;;;;;;11.12;5.85;;;;;;;25.73;65.35;100230.31;1718757;82;20980;-41
2021/08/11 07:21:01;;;;;;;10.25;5.17;;;;;;;25.82;64.45;100225.52;1743140;81;21010;-41
2021/08/11 07:23:27;;;;;;;13.80;4.70;;;;;;;25.70;63.17;100224.42;1700011;84;21054;-41
2021/08/11 07:25:54;;;;;;;11.50;4.97;;;;;;;25.61;65.51;100223.40;1740835;80;21007;-41
2021/08/11 07:28:20;;;;;;;4.87;4.42;;;;;;;25.67;66.77;100217.59;1742688;82;21080;-41
2021/08/11 07:30:47;;;;;;;9.30;5.37;;;;;;;25.90;64.15;100213.44;1741911;81;20905;-41
2021/08/11 07:33:13;;;;;;;12.75;6.90;;;;;;;26.11;64.02;100211.52;1742585;81;21006;-41
2021/08/11 07:35:40;;;;;;;12.93;6.58;;;;;;;26.29;62.34;100205.60;1734681;81;20959;-41
2021/08/11 07:38:06;;;;;;;15.32;7.45;;;;;;;26.26;62.74;100209.86;1742093;81;21034;-40
2021/08/11 07:40:34;;;;;;;9.25;6.35;;;;;;;26.18;62.13;100207.05;1743814;81;21103;-41
2021/08/11 07:44:35;;;;;;;14.90;6.78;;;;;;;26.19;62.91;100199.45;1792572;79;22652;-41
2021/08/11 07:47:01;;;;;;;11.25;7.33;;;;;;;26.27;61.67;100200.92;1765047;80;20975;-40
2021/08/11 07:49:28;;;;;;;14.78;7.00;;;;;;;26.38;62.01;100198.13;1756988;81;21122;-41
2021/08/11 07:51:54;;;;;;;23.95;7.00;;;;;;;26.61;62.72;100201.86;1748404;80;21027;-41
2021/08/11 07:54:21;;;;;;;9.10;6.33;;;;;;;26.87;62.19;100197.34;1751208;80;20999;-40
2021/08/11 07:56:47;;;;;;;10.65;5.90;;;;;;;27.09;61.20;100194.03;1696742;81;21018;-41
2021/08/11 07:59:13;;;;;;;7.42;5.65;;;;;;;27.24;59.75;100191.77;1697100;83;20955;-40
2021/08/11 08:01:40;;;;;;;13.43;5.90;;;;;;;27.14;60.04;100192.29;1725808;81;21696;-41
2021/08/11 08:04:06;;;;;;;9.35;5.50;;;;;;;27.10;60.43;100190.40;1743939;81;21595;-40
2021/08/11 08:06:32;;;;;;;15.53;5.67;;;;;;;27.18;61.15;100188.36;1736817;81;20941;-41
2021/08/11 08:08:59;;;;;;;19.50;5.58;;;;;;;27.34;61.34;100184.62;1693204;83;20952;-40
2021/08/11 08:11:25;;;;;;;9.63;5.83;;;;;;;27.47;60.72;100195.41;1705409;82;20941;-40
2021/08/11 08:13:52;;;;;;;12.10;5.50;;;;;;;27.51;60.47;100192.36;1688126;83;21868;-41
2021/08/11 08:16:18;;;;;;;9.20;5.28;;;;;;;27.65;59.24;100189.71;1741832;82;20935;-40
2021/08/11 08:18:44;;;;;;;7.72;5.25;;;;;;;27.60;57.49;100187.99;1669491;85;21002;-40
2021/08/11 08:21:11;;;;;;;10.18;5.08;;;;;;;27.61;58.66;100185.68;1696219;82;20933;-40
2021/08/11 08:23:39;;;;;;;8.93;4.90;;;;;;;27.83;59.53;100184.45;1701079;83;21033;-41
2021/08/11 08:26:07;;;;;;;7.12;4.42;;;;;;;28.03;55.55;100185.67;1696589;83;21014;-41
2021/08/11 08:28:33;;;;;;;10.25;4.75;;;;;;;27.92;54.31;100185.39;1724731;83;21572;-42
2021/08/11 08:31:00;;;;;;;10.70;5.08;;;;;;;27.88;55.93;100189.81;1716331;83;21545;-42
2021/08/11 08:33:26;;;;;;;12.07;5.33;;;;;;;27.95;55.46;100192.24;1713456;83;21572;-41
2021/08/11 08:35:53;;;;;;;9.98;4.85;;;;;;;27.99;54.15;100190.95;1706793;83;21540;-41
2021/08/11 08:38:20;;;;;;;7.83;5.08;;;;;;;27.94;53.55;100190.57;1701501;83;21138;-42
2021/08/11 08:40:47;;;;;;;7.08;4.70;;;;;;;27.90;53.80;100194.48;1721698;83;20975;-41
2021/08/11 08:43:15;;;;;;;11.63;5.30;;;;;;;27.94;53.91;100189.23;1694300;83;21027;-41
2021/08/11 08:45:44;;;;;;;15.78;5.53;;;;;;;28.04;53.02;100189.16;1650341;85;20965;-42
2021/08/11 08:48:10;;;;;;;9.53;5.20;;;;;;;28.20;54.14;100184.56;1685981;83;20956;-42
2021/08/11 08:50:36;;;;;;;12.03;4.87;;;;;;;28.52;54.64;100176.05;1710886;83;21133;-41
2021/08/11 08:53:04;;;;;;;8.05;5.00;;;;;;;28.87;53.12;100176.20;1712007;83;21031;-43
2021/08/11 08:55:31;;;;;;;8.73;4.83;;;;;;;29.05;51.96;100175.33;1704904;83;21040;-42
2021/08/11 08:57:58;;;;;;;9.83;4.72;;;;;;;29.09;53.01;100172.69;1682980;83;21059;-41
2021/08/11 09:00:25;;;;;;;13.48;4.92;;;;;;;29.06;51.57;100174.34;1682883;83;21031;-42
2021/08/11 09:02:52;;;;;;;10.80;5.00;;;;;;;29.09;50.92;100162.03;1698211;83;21183;-42
2021/08/11 09:05:18;;;;;;;15.32;4.65;;;;;;;29.15;51.81;100164.06;1697795;83;20933;-41
2021/08/11 09:07:49;;;;;;;7.87;4.58;;;;;;;29.10;50.33;100166.37;1694755;83;21063;-42
2021/08/11 09:10:26;;;;;;;5.70;3.80;;;;;;;28.97;50.30;100168.11;1691646;82;21036;-41
2021/08/11 09:13:27;;;;;;;10.65;4.42;;;;;;;29.01;50.21;100164.66;1693293;83;21055;-42
2021/08/11 09:15:39;;;;;;;;;;;;;;;28.97;51.50;100158.80;1661105;83;21085;-42
2021/08/11 09:18:22;;;;;;;13.15;4.33;;;;;;;29.21;50.33;100159.94;1696359;83;20176;-43
2021/08/11 09:21:03;;;;;;;9.60;4.00;;;;;;;29.31;49.15;100159.36;1691935;82;20961;-42
2021/08/11 09:23:41;;;;;;;6.33;4.12;;;;;;;29.46;47.07;100152.11;1686882;83;21510;-39
2021/08/11 09:26:16;;;;;;;7.67;4.00;;;;;;;29.34;47.53;100157.70;1697365;83;21071;-41
2021/08/11 09:28:44;;;;;;;22.13;4.20;;;;;;;29.30;49.38;100152.84;1694836;83;21055;-43
2021/08/11 09:31:26;;;;;;;8.23;3.52;;;;;;;29.57;47.72;100156.33;1694686;83;21063;-41
2021/08/11 09:33:56;;;;;;;12.15;4.40;;;;;;;29.97;47.75;100152.14;1686293;83;21716;-41
2021/08/11 09:36:23;;;;;;;5.20;3.85;;;;;;;30.31;45.26;100144.55;1684878;83;21126;-41
2021/08/11 09:39:03;;;;;;;11.22;3.70;;;;;;;30.49;44.92;100153.73;1683359;83;21600;-40
2021/08/11 09:41:32;;;;;;;11.80;4.55;;;;;;;30.70;44.36;100143.08;1683640;83;21118;-42
2021/08/11 09:44:10;;;;;;;11.83;3.98;;;;;;;30.80;43.10;100150.92;1697505;83;21031;-40
2021/08/11 09:46:40;;;;;;;12.55;3.70;;;;;;;30.99;44.14;100147.56;1706767;83;20952;-42
2021/08/11 09:49:19;;;;;;;6.53;3.90;;;;;;;31.18;40.76;100145.02;1664897;84;21521;-41
2021/08/11 09:51:59;;;;;;;13.20;4.17;;;;;;;31.07;42.20;100136.85;1664824;84;21039;-41
2021/08/11 09:54:26;;;;;;;12.43;4.12;;;;;;;31.15;43.97;100141.34;1690860;83;21136;-41
2021/08/11 09:56:53;;;;;;;10.05;3.62;;;;;;;31.27;43.32;100143.19;1676904;85;20992;-42
2021/08/11 09:59:23;;;;;;;11.70;4.08;;;;;;;31.34;41.18;100129.45;1643596;85;21023;-42
2021/08/11 10:01:50;;;;;;;7.30;3.17;;;;;;;31.35;41.34;100138.65;1659345;85;20936;-42
2021/08/11 10:04:19;;;;;;;5.10;3.15;;;;;;;31.30;42.19;100133.48;1665970;86;21081;-42
2021/08/11 10:06:46;;;;;;;14.25;3.55;;;;;;;31.23;41.94;100138.67;1640631;86;21073;-42
2021/08/11 10:09:25;;;;;;;6.28;3.17;;;;;;;31.13;42.45;100140.17;1717557;83;20984;-42
2021/08/11 10:11:57;;;;;;;7.80;3.20;;;;;;;31.18;42.54;100137.81;1713466;83;21505;-41
2021/08/11 10:14:29;;;;;;;5.72;3.22;;;;;;;31.42;42.70;100136.09;1718927;83;20964;-42
2021/08/11 10:16:58;;;;;;;7.65;3.80;;;;;;;31.60;40.46;100133.20;1705130;83;21039;-42
2021/08/11 10:19:29;;;;;;;9.90;2.75;;;;;;;31.56;40.54;100136.39;1699470;83;21218;-41
2021/08/11 10:22:02;;;;;;;5.80;3.15;;;;;;;31.45;41.59;100137.60;1660247;84;21588;-42
2021/08/11 10:24:30;;;;;;;6.60;3.12;;;;;;;31.31;40.37;100147.17;1667287;83;21059;-41
2021/08/11 10:26:57;;;;;;;4.28;3.47;;;;;;;31.22;41.21;100140.53;1657297;85;20996;-41
2021/08/11 10:29:26;;;;;;;9.85;3.58;;;;;;;31.44;40.39;100132.74;1641340;86;20975;-39
2021/08/11 10:31:54;;;;;;;9.38;3.22;;;;;;;31.62;42.00;100134.34;1650192;86;21616;-39
2021/08/11 10:34:22;;;;;;;7.80;3.55;;;;;;;31.95;41.53;100132.36;1694178;83;21043;-40
2021/08/11 10:36:48;;;;;;;8.48;3.20;;;;;;;32.29;39.11;100132.13;1718164;82;20999;-40
2021/08/11 10:39:15;;;;;;;14.65;3.40;;;;;;;32.24;38.82;100138.04;1718090;83;21015;-41
2021/08/11 10:41:41;;;;;;;5.90;2.95;;;;;;;32.31;38.20;100137.64;1667649;84;21004;-39
2021/08/11 10:44:18;;;;;;;13.18;3.05;;;;;;;32.47;38.53;100138.05;1699930;83;21138;-41
2021/08/11 10:46:57;;;;;;;3.30;2.95;;;;;;;32.43;36.08;100137.23;1690064;83;21000;-41
2021/08/11 10:49:27;;;;;;;8.75;2.98;;;;;;;32.61;36.35;100131.06;1684059;83;20960;-41
2021/08/11 10:51:58;;;;;;;14.07;2.75;;;;;;;32.81;37.00;100126.00;1684203;83;21055;-42
2021/08/11 10:54:21;;;;;;;10.63;2.58;;;;;;;33.01;36.88;100122.02;1664461;83;21004;-40
2021/08/11 10:56:51;;;;;;;7.75;3.10;;;;;;;33.10;35.14;100124.91;1696035;83;21655;-42
2021/08/11 10:59:29;;;;;;;7.15;2.95;;;;;;;33.07;34.69;100124.77;1697865;83;21521;-42
2021/08/11 11:01:56;;;;;;;13.32;2.80;;;;;;;33.03;37.33;100123.47;1696531;83;21003;-41
2021/08/11 11:04:42;;;;;;;7.70;2.77;;;;;;;33.17;38.71;100123.15;1693022;83;21066;-41
2021/08/11 11:07:15;;;;;;;7.58;2.42;;;;;;;33.55;36.01;100122.22;1697129;83;21016;-42
2021/08/11 11:09:47;;;;;;;14.38;2.90;;;;;;;33.84;37.16;100115.64;1697099;83;21107;-41
2021/08/11 11:12:22;;;;;;;8.15;3.00;;;;;;;33.90;35.72;100116.20;1695230;82;20909;-43
2021/08/11 11:14:53;;;;;;;10.05;2.80;;;;;;;34.01;34.99;100118.94;1708092;83;21091;-39
2021/08/11 11:17:30;;;;;;;6.60;2.47;;;;;;;34.02;34.81;100112.54;1692501;83;21008;-40
2021/08/11 11:20:08;;;;;;;9.13;3.02;;;;;;;33.95;36.16;100113.78;1691831;83;21658;-42
2021/08/11 11:22:56;;;;;;;9.38;3.02;;;;;;;33.89;34.04;100115.39;1698332;83;21742;-39
2021/08/11 11:26:01;;;;;;;9.08;2.62;;;;;;;33.92;33.53;100115.01;1683257;83;20995;-40
2021/08/11 11:29:01;;;;;;;10.03;2.62;;;;;;;33.89;33.34;100116.73;1683013;83;21072;-40